createdAt,value
2022-11-03T00:02:12.829Z,59.17
2022-11-03T00:04:40.016Z,59.63
2022-11-03T00:07:07.101Z,59.64
2022-11-03T00:09:34.192Z,59.50
2022-11-03T00:12:01.924Z,59.47
2022-11-03T00:14:29.073Z,59.55
2022-11-03T00:16:56.190Z,59.55
2022-11-03T00:19:23.314Z,59.53
2022-11-03T00:21:50.459Z,59.77
2022-11-03T00:24:17.529Z,59.69
2022-11-03T00:26:44.653Z,59.86
2022-11-03T00:29:14.016Z,59.84
2022-11-03T00:31:44.345Z,59.54
2022-11-03T00:34:12.235Z,59.74
2022-11-03T00:36:43.513Z,59.79
2022-11-03T00:39:11.856Z,59.77
2022-11-03T00:41:39.307Z,59.67
2022-11-03T00:44:06.487Z,59.56
2022-11-03T00:46:36.614Z,59.72
2022-11-03T00:49:05.519Z,59.82
2022-11-03T00:51:35.053Z,60.10
2022-11-03T00:54:04.971Z,60.02
2022-11-03T00:56:38.376Z,59.85
2022-11-03T00:59:07.425Z,60.21
2022-11-03T01:01:45.394Z,59.89
2022-11-03T01:04:34.816Z,59.98
2022-11-03T01:07:04.380Z,60.16
2022-11-03T01:09:40.858Z,60.04
2022-11-03T01:12:26.058Z,59.79
2022-11-03T01:14:54.094Z,59.72
2022-11-03T01:17:26.311Z,59.80
2022-11-03T01:19:54.906Z,59.74
2022-11-03T01:22:23.762Z,60.03
2022-11-03T01:24:53.941Z,59.78
2022-11-03T01:27:24.998Z,59.55
2022-11-03T01:29:52.156Z,59.51
2022-11-03T01:32:19.279Z,59.85
2022-11-03T01:34:46.369Z,60.04
2022-11-03T01:37:13.446Z,60.11
2022-11-03T01:39:40.547Z,59.80
2022-11-03T01:42:07.768Z,60.03
2022-11-03T01:44:45.340Z,59.62
2022-11-03T01:47:27.576Z,59.91
2022-11-03T01:50:10.941Z,59.78
2022-11-03T01:52:56.516Z,59.51
2022-11-03T01:55:30.395Z,59.68
2022-11-03T01:58:08.951Z,59.56
2022-11-03T02:00:36.935Z,59.82
2022-11-03T02:03:05.062Z,59.76
2022-11-03T02:05:32.410Z,59.89
2022-11-03T02:10:37.723Z,59.80
2022-11-03T02:13:24.712Z,59.83
2022-11-03T02:15:56.786Z,59.58
2022-11-03T02:18:30.284Z,59.94
2022-11-03T02:21:45.271Z,60.36
2022-11-03T02:24:27.348Z,60.23
2022-11-03T02:26:56.793Z,60.15
2022-11-03T02:29:24.019Z,60.07
2022-11-03T02:32:22.975Z,60.26
2022-11-03T02:35:12.503Z,60.27
2022-11-03T02:37:45.381Z,60.33
2022-11-03T02:40:36.635Z,60.52
2022-11-03T02:43:05.773Z,60.43
2022-11-03T02:45:33.329Z,60.46
2022-11-03T02:48:03.454Z,60.50
2022-11-03T02:50:34.002Z,60.25
2022-11-03T02:53:02.007Z,60.15
2022-11-03T02:55:43.260Z,60.09
2022-11-03T02:58:25.045Z,60.17
2022-11-03T03:01:03.012Z,60.44
2022-11-03T03:03:34.505Z,60.59
2022-11-03T03:06:13.678Z,60.56
2022-11-03T03:08:47.713Z,60.55
2022-11-03T03:11:15.065Z,60.45
2022-11-03T03:13:44.418Z,60.51
2022-11-03T03:16:30.911Z,60.26
2022-11-03T03:19:18.324Z,60.36
2022-11-03T03:21:51.203Z,60.33
2022-11-03T03:25:02.740Z,60.38
2022-11-03T03:27:34.186Z,60.62
2022-11-03T03:30:07.534Z,60.72
2022-11-03T03:32:40.775Z,60.70
2022-11-03T03:35:14.331Z,61.02
2022-11-03T03:37:47.307Z,60.94
2022-11-03T03:40:21.629Z,60.88
2022-11-03T03:42:50.541Z,60.67
2022-11-03T03:45:19.650Z,60.54
2022-11-03T03:47:47.524Z,60.42
2022-11-03T03:50:14.843Z,60.29
2022-11-03T03:52:41.952Z,60.49
2022-11-03T03:55:18.527Z,60.61
2022-11-03T03:57:45.624Z,60.47
2022-11-03T04:00:16.778Z,60.60
2022-11-03T04:02:43.841Z,60.70
2022-11-03T04:05:11.186Z,60.74
2022-11-03T04:07:46.961Z,60.77
2022-11-03T04:10:18.527Z,60.70
2022-11-03T04:13:04.956Z,60.67
2022-11-03T04:16:08.381Z,60.94
2022-11-03T04:18:53.883Z,61.07
2022-11-03T04:21:39.336Z,61.32
2022-11-03T04:24:06.787Z,61.38
2022-11-03T04:26:33.830Z,61.66
2022-11-03T04:29:01.790Z,61.53
2022-11-03T04:31:36.747Z,61.57
2022-11-03T04:34:10.597Z,61.41
2022-11-03T04:36:37.812Z,61.49
2022-11-03T04:39:20.607Z,61.37
2022-11-03T04:41:48.366Z,61.30
2022-11-03T04:44:16.815Z,61.26
2022-11-03T04:46:46.801Z,60.93
2022-11-03T04:49:22.211Z,60.83
2022-11-03T04:51:50.287Z,61.07
2022-11-03T04:54:22.615Z,61.17
2022-11-03T04:56:49.708Z,61.47
2022-11-03T04:59:17.379Z,61.43
2022-11-03T05:01:46.364Z,61.72
2022-11-03T05:04:19.821Z,62.02
2022-11-03T05:06:52.706Z,61.59
2022-11-03T05:09:30.549Z,61.48
2022-11-03T05:11:57.792Z,61.68
2022-11-03T05:14:34.177Z,61.53
2022-11-03T05:17:03.141Z,61.82
2022-11-03T05:19:42.910Z,61.56
2022-11-03T05:22:20.327Z,61.55
2022-11-03T05:24:47.427Z,61.26
2022-11-03T05:27:21.057Z,61.80
2022-11-03T05:29:51.010Z,61.59
2022-11-03T05:32:24.242Z,61.76
2022-11-03T05:34:52.947Z,61.83
2022-11-03T05:37:34.641Z,61.60
2022-11-03T05:40:22.102Z,61.60
2022-11-03T05:43:01.230Z,61.38
2022-11-03T05:45:36.059Z,61.34
2022-11-03T05:48:17.398Z,61.55
2022-11-03T05:50:44.970Z,61.74
2022-11-03T05:53:31.527Z,61.64
2022-11-03T05:56:04.902Z,61.53
2022-11-03T05:58:41.240Z,61.66
2022-11-03T06:01:19.393Z,61.57
2022-11-03T06:03:47.828Z,61.73
2022-11-03T06:06:38.291Z,61.69
2022-11-03T06:09:18.096Z,61.76
2022-11-03T06:11:45.906Z,61.75
2022-11-03T06:14:24.706Z,62.02
2022-11-03T06:17:00.306Z,62.13
2022-11-03T06:19:36.137Z,61.98
2022-11-03T06:22:19.799Z,61.77
2022-11-03T06:24:47.975Z,62.06
2022-11-03T06:27:19.800Z,61.82
2022-11-03T06:29:58.889Z,61.91
2022-11-03T06:32:26.213Z,61.85
2022-11-03T06:34:57.857Z,61.70
2022-11-03T06:37:35.134Z,61.60
2022-11-03T06:40:24.263Z,61.54
2022-11-03T06:42:54.488Z,61.47
2022-11-03T06:45:26.596Z,61.43
2022-11-03T06:47:54.683Z,61.40
2022-11-03T06:50:30.080Z,61.46
2022-11-03T06:52:58.811Z,61.09
2022-11-03T06:55:28.595Z,60.58
2022-11-03T06:58:26.430Z,60.36
2022-11-03T07:01:01.828Z,60.55
2022-11-03T07:03:37.490Z,60.30
2022-11-03T07:06:10.929Z,60.32
2022-11-03T07:08:43.967Z,60.14
2022-11-03T07:11:23.284Z,59.68
2022-11-03T07:14:10.911Z,59.36
2022-11-03T07:16:44.885Z,59.30
2022-11-03T07:19:25.675Z,58.78
2022-11-03T07:22:06.776Z,58.57
2022-11-03T07:24:39.460Z,58.37
2022-11-03T07:27:22.102Z,58.26
2022-11-03T07:29:51.141Z,58.15
2022-11-03T07:32:27.078Z,58.08
2022-11-03T07:35:03.377Z,58.08
2022-11-03T07:37:30.651Z,57.66
2022-11-03T07:39:58.708Z,57.52
2022-11-03T07:42:28.325Z,56.90
2022-11-03T07:45:00.402Z,56.50
2022-11-03T07:47:29.001Z,56.09
2022-11-03T07:49:56.708Z,55.96
2022-11-03T07:52:26.269Z,55.69
2022-11-03T07:54:59.364Z,55.40
2022-11-03T07:57:31.510Z,55.06
2022-11-03T08:00:10.914Z,54.89
2022-11-03T08:02:52.901Z,54.73
2022-11-03T08:07:52.191Z,54.06
2022-11-03T08:10:21.401Z,53.76
2022-11-03T08:12:48.497Z,53.58
2022-11-03T08:15:15.978Z,53.27
2022-11-03T08:17:42.996Z,53.38
2022-11-03T08:20:10.866Z,53.55
2022-11-03T08:22:37.857Z,53.52
2022-11-03T08:25:05.619Z,53.33
2022-11-03T08:27:32.708Z,53.12
2022-11-03T08:29:59.924Z,52.47
2022-11-03T08:32:27.010Z,52.45
2022-11-03T08:34:54.072Z,52.52
2022-11-03T08:37:23.700Z,52.25
2022-11-03T08:39:50.779Z,51.98
2022-11-03T08:42:18.283Z,51.57
2022-11-03T08:44:45.318Z,51.34
2022-11-03T08:47:12.606Z,51.26
2022-11-03T08:49:39.781Z,51.05
2022-11-03T08:52:06.968Z,50.71
2022-11-03T08:54:34.026Z,50.58
2022-11-03T08:57:01.150Z,50.49
2022-11-03T08:59:28.188Z,49.74
2022-11-03T09:01:55.546Z,49.70
2022-11-03T09:04:22.740Z,49.58
2022-11-03T09:06:49.860Z,49.45
2022-11-03T09:12:04.313Z,48.30
2022-11-03T09:14:31.426Z,48.35
2022-11-03T09:16:58.601Z,48.26
2022-11-03T09:19:25.747Z,47.64
2022-11-03T09:21:53.160Z,47.17
2022-11-03T09:24:20.194Z,47.28
2022-11-03T09:26:47.234Z,47.26
2022-11-03T09:29:14.402Z,47.15
2022-11-03T09:31:41.901Z,46.96
2022-11-03T09:34:09.086Z,46.82
2022-11-03T09:36:36.647Z,46.59
2022-11-03T09:39:04.283Z,46.43
2022-11-03T09:41:53.874Z,46.45
2022-11-03T09:44:20.904Z,46.14
2022-11-03T09:46:48.201Z,46.10
2022-11-03T09:49:16.175Z,45.84
2022-11-03T09:51:43.868Z,46.09
2022-11-03T09:54:16.967Z,45.41
2022-11-03T09:56:44.627Z,45.37
2022-11-03T09:59:20.105Z,44.80
2022-11-03T10:01:50.829Z,44.78
2022-11-03T10:04:29.320Z,44.96
2022-11-03T10:06:58.502Z,44.61
2022-11-03T10:09:28.493Z,44.28
2022-11-03T10:11:56.389Z,43.75
2022-11-03T10:14:24.347Z,43.57
2022-11-03T10:17:01.048Z,43.12
2022-11-03T10:19:28.543Z,42.56
2022-11-03T10:21:58.622Z,42.04
2022-11-03T10:24:27.108Z,41.67
2022-11-03T10:26:55.280Z,41.21
2022-11-03T10:29:25.482Z,40.20
2022-11-03T10:31:56.216Z,39.50
2022-11-03T10:34:39.223Z,38.18
2022-11-03T10:37:25.822Z,37.41
2022-11-03T10:40:01.317Z,37.17
2022-11-03T10:42:35.280Z,36.85
2022-11-03T10:45:18.296Z,36.16
2022-11-03T10:48:00.802Z,36.04
2022-11-03T10:50:28.837Z,35.60
2022-11-03T10:52:56.226Z,35.31
2022-11-03T10:55:25.481Z,34.27
2022-11-03T10:57:57.932Z,33.53
2022-11-03T11:00:25.516Z,32.76
2022-11-03T11:02:58.941Z,31.43
2022-11-03T11:05:26.771Z,31.04
2022-11-03T11:07:55.076Z,30.65
2022-11-03T11:10:26.898Z,29.92
2022-11-03T11:13:04.106Z,29.22
2022-11-03T11:15:47.722Z,28.48
2022-11-03T11:18:30.181Z,28.72
2022-11-03T11:21:02.634Z,28.95
2022-11-03T11:23:29.721Z,28.21
2022-11-03T11:26:30.329Z,27.57
2022-11-03T11:29:09.954Z,27.47
2022-11-03T11:31:42.295Z,26.53
2022-11-03T11:34:09.482Z,26.17
2022-11-03T11:36:41.200Z,25.75
2022-11-03T11:39:20.720Z,25.50
2022-11-03T11:42:13.295Z,25.66
2022-11-03T11:44:43.625Z,25.69
2022-11-03T11:47:49.287Z,25.52
2022-11-03T11:50:25.976Z,25.69
2022-11-03T11:53:11.120Z,26.04
2022-11-03T11:55:56.151Z,25.94
2022-11-03T11:58:27.532Z,26.21
2022-11-03T12:01:00.200Z,26.26
2022-11-03T12:03:36.840Z,25.81
2022-11-03T12:06:04.640Z,25.86
2022-11-03T12:08:32.293Z,26.96
2022-11-03T12:11:03.218Z,27.51
2022-11-03T12:13:54.359Z,26.74
2022-11-03T12:16:36.752Z,26.40
2022-11-03T12:19:42.633Z,25.86
2022-11-03T12:22:29.078Z,26.31
2022-11-03T12:25:05.069Z,25.57
2022-11-03T12:27:33.980Z,25.32
2022-11-03T12:30:05.879Z,25.63
2022-11-03T12:32:34.912Z,24.71
2022-11-03T12:35:08.584Z,24.16
2022-11-03T12:37:36.103Z,23.64
2022-11-03T12:40:04.376Z,24.02
2022-11-03T12:42:31.700Z,23.96
2022-11-03T12:44:59.296Z,24.34
2022-11-03T12:47:26.445Z,24.28
2022-11-03T12:49:54.068Z,24.50
2022-11-03T12:52:21.275Z,25.09
2022-11-03T12:54:48.499Z,25.21
2022-11-03T12:57:15.675Z,25.61
2022-11-03T12:59:42.766Z,26.31
2022-11-03T13:02:11.643Z,26.51
2022-11-03T13:04:39.112Z,26.89
2022-11-03T13:07:06.473Z,28.03
2022-11-03T13:09:35.878Z,28.69
2022-11-03T13:12:26.474Z,29.26
2022-11-03T13:14:53.614Z,28.53
2022-11-03T13:17:20.670Z,28.77
2022-11-03T13:19:49.369Z,28.63
2022-11-03T13:22:21.424Z,28.56
2022-11-03T13:24:48.671Z,28.56
2022-11-03T13:27:15.849Z,27.96
2022-11-03T13:29:43.004Z,27.72
2022-11-03T13:32:10.154Z,28.21
2022-11-03T13:34:37.280Z,28.87
2022-11-03T13:37:04.859Z,29.44
2022-11-03T13:39:32.097Z,29.76
2022-11-03T13:41:59.151Z,30.26
2022-11-03T13:44:26.286Z,30.36
2022-11-03T13:46:54.204Z,31.38
2022-11-03T13:49:59.202Z,31.53
2022-11-03T13:52:09.577Z,31.29
2022-11-03T14:00:16.917Z,31.61
2022-11-03T14:05:31.291Z,32.03
2022-11-03T14:07:58.648Z,32.41
2022-11-03T14:10:25.715Z,31.73
2022-11-03T14:12:52.804Z,31.24
2022-11-03T14:15:20.059Z,31.25
2022-11-03T14:17:47.089Z,31.02
2022-11-03T14:20:14.358Z,31.79
2022-11-03T14:22:41.561Z,33.50
2022-11-03T14:25:08.876Z,34.56
2022-11-03T14:27:36.115Z,36.38
2022-11-03T14:30:04.645Z,37.38
2022-11-03T14:32:31.839Z,38.51
2022-11-03T14:34:58.886Z,39.08
2022-11-03T14:37:26.113Z,39.52
2022-11-03T14:39:53.223Z,40.19
2022-11-03T14:42:20.257Z,41.37
2022-11-03T14:44:48.107Z,42.12
2022-11-03T14:47:18.334Z,42.41
2022-11-03T14:49:46.539Z,42.38
2022-11-03T14:52:15.033Z,43.08
2022-11-03T14:54:43.131Z,43.60
2022-11-03T14:57:10.305Z,44.14
2022-11-03T14:59:38.138Z,44.19
2022-11-03T15:02:06.330Z,44.62
2022-11-03T15:04:33.682Z,44.67
2022-11-03T15:07:00.891Z,44.95
2022-11-03T15:09:27.898Z,45.25
2022-11-03T15:11:55.152Z,45.65
2022-11-03T15:14:22.512Z,46.50
2022-11-03T15:16:49.613Z,46.89
2022-11-03T15:19:16.745Z,46.80
2022-11-03T15:21:43.899Z,46.61
2022-11-03T15:26:58.185Z,47.46
2022-11-03T15:29:25.286Z,47.31
2022-11-03T15:31:52.315Z,47.51
2022-11-03T15:34:19.448Z,47.78
2022-11-03T15:36:46.507Z,47.97
2022-11-03T15:39:13.658Z,48.07
2022-11-03T15:41:40.908Z,48.40
2022-11-03T15:44:07.954Z,48.59
2022-11-03T15:46:35.766Z,48.64
2022-11-03T15:49:03.592Z,48.82
2022-11-03T15:51:30.745Z,48.69
2022-11-03T15:53:59.128Z,48.96
2022-11-03T15:56:27.447Z,49.27
2022-11-03T15:58:54.942Z,48.98
2022-11-03T16:01:22.201Z,49.25
2022-11-03T16:03:49.694Z,49.36
2022-11-03T16:06:16.886Z,49.58
2022-11-03T16:08:43.988Z,49.85
2022-11-03T16:11:11.010Z,49.85
2022-11-03T16:13:38.205Z,49.94
2022-11-03T16:16:05.790Z,50.31
2022-11-03T16:18:32.849Z,50.28
2022-11-03T16:20:59.918Z,50.42
2022-11-03T16:23:27.000Z,50.54
2022-11-03T16:25:54.218Z,50.28
2022-11-03T16:28:21.292Z,50.25
2022-11-03T16:30:53.019Z,50.28
2022-11-03T16:33:21.940Z,50.52
2022-11-03T16:35:49.528Z,50.63
2022-11-03T16:38:17.023Z,50.86
2022-11-03T16:40:44.601Z,51.19
2022-11-03T16:43:12.415Z,51.05
2022-11-03T16:45:39.503Z,51.18
2022-11-03T16:48:08.011Z,51.08
2022-11-03T16:50:35.615Z,51.03
2022-11-03T16:53:03.374Z,51.19
2022-11-03T16:55:30.442Z,51.00
2022-11-03T16:57:57.783Z,51.06
2022-11-03T17:00:24.843Z,51.12
2022-11-03T17:02:52.239Z,51.26
2022-11-03T17:05:21.248Z,51.24
2022-11-03T17:07:53.702Z,51.27
2022-11-03T17:10:22.293Z,51.35
2022-11-03T17:12:50.477Z,51.21
2022-11-03T17:15:17.749Z,51.29
2022-11-03T17:17:44.868Z,51.43
2022-11-03T17:20:12.713Z,51.54
2022-11-03T17:22:40.382Z,51.66
2022-11-03T17:25:09.643Z,51.64
2022-11-03T17:27:52.976Z,51.64
2022-11-03T17:30:29.757Z,51.82
2022-11-03T17:33:00.474Z,51.63
2022-11-03T17:35:41.132Z,51.57
2022-11-03T17:38:15.239Z,51.98
2022-11-03T17:40:45.583Z,51.87
2022-11-03T17:43:27.626Z,52.05
2022-11-03T17:45:54.803Z,52.02
2022-11-03T17:48:24.577Z,52.31
2022-11-03T17:50:54.543Z,52.33
2022-11-03T17:53:32.032Z,52.28
2022-11-03T17:56:29.623Z,52.46
2022-11-03T17:58:49.555Z,52.56
2022-11-03T18:01:24.055Z,52.80
2022-11-03T18:03:52.223Z,52.69
2022-11-03T18:06:20.969Z,53.09
2022-11-03T18:08:49.324Z,53.39
2022-11-03T18:11:44.516Z,53.50
2022-11-03T18:14:12.014Z,53.82
2022-11-03T18:16:39.577Z,53.99
2022-11-03T18:19:14.566Z,54.07
2022-11-03T18:21:42.955Z,54.10
2022-11-03T18:24:17.052Z,54.05
2022-11-03T18:26:45.565Z,53.97
2022-11-03T18:29:12.610Z,54.03
2022-11-03T18:31:50.743Z,54.10
2022-11-03T18:34:25.884Z,54.29
2022-11-03T18:36:53.545Z,54.19
2022-11-03T18:39:26.974Z,54.17
2022-11-03T18:41:55.056Z,54.20
2022-11-03T18:44:30.698Z,54.18
2022-11-03T18:46:58.947Z,54.20
2022-11-03T18:49:33.047Z,54.19
2022-11-03T18:52:13.899Z,53.99
2022-11-03T18:54:52.299Z,53.93
2022-11-03T18:57:22.922Z,54.35
2022-11-03T18:59:50.207Z,54.47
2022-11-03T19:02:25.640Z,54.11
2022-11-03T19:04:53.019Z,54.01
2022-11-03T19:07:36.051Z,53.90
2022-11-03T19:10:10.696Z,54.15
2022-11-03T19:12:40.426Z,54.24
2022-11-03T19:15:15.850Z,54.06
2022-11-03T19:17:43.148Z,54.20
2022-11-03T19:20:14.016Z,53.97
2022-11-03T19:22:41.305Z,54.03
2022-11-03T19:25:09.216Z,54.16
2022-11-03T19:27:39.358Z,54.26
2022-11-03T19:30:07.496Z,54.24
2022-11-03T19:32:41.040Z,54.15
2022-11-03T19:35:21.338Z,54.43
2022-11-03T19:37:51.540Z,54.46
2022-11-03T19:40:20.453Z,54.56
2022-11-03T19:42:48.951Z,54.69
2022-11-03T19:45:20.708Z,54.79
2022-11-03T19:50:48.313Z,55.13
2022-11-03T19:53:26.280Z,55.26
2022-11-03T19:55:55.182Z,55.38
2022-11-03T19:58:25.794Z,55.49
2022-11-03T20:00:54.065Z,55.53
2022-11-03T20:03:22.334Z,55.44
2022-11-03T20:05:55.688Z,55.40
2022-11-03T20:08:32.277Z,55.34
2022-11-03T20:10:59.601Z,55.16
2022-11-03T20:13:40.800Z,55.54
2022-11-03T20:16:16.496Z,55.64
2022-11-03T20:18:44.200Z,55.53
2022-11-03T20:21:16.967Z,55.45
2022-11-03T20:23:45.235Z,55.29
2022-11-03T20:26:17.297Z,55.17
2022-11-03T20:28:45.147Z,55.19
2022-11-03T20:31:14.135Z,55.06
2022-11-03T20:33:41.655Z,55.15
2022-11-03T20:36:27.259Z,55.15
2022-11-03T20:38:59.276Z,55.01
2022-11-03T20:41:30.590Z,55.09
2022-11-03T20:43:59.278Z,55.08
2022-11-03T20:46:33.574Z,55.15
2022-11-03T20:49:01.049Z,55.02
2022-11-03T20:51:34.311Z,55.18
2022-11-03T20:54:03.236Z,55.09
2022-11-03T20:56:30.420Z,55.27
2022-11-03T20:58:58.323Z,55.29
2022-11-03T21:01:34.497Z,55.25
2022-11-03T21:04:03.311Z,55.42
2022-11-03T21:06:32.776Z,55.41
2022-11-03T21:09:00.221Z,55.35
2022-11-03T21:11:31.082Z,55.35
2022-11-03T21:14:07.927Z,55.31
2022-11-03T21:16:53.960Z,55.30
2022-11-03T21:19:43.469Z,55.53
2022-11-03T21:25:19.584Z,55.38
2022-11-03T21:27:49.404Z,55.31
2022-11-03T21:30:18.129Z,55.38
2022-11-03T21:32:45.602Z,55.32
2022-11-03T21:35:20.168Z,55.46
2022-11-03T21:37:47.538Z,55.31
2022-11-03T21:40:16.123Z,55.19
2022-11-03T21:43:01.776Z,55.09
2022-11-03T21:45:29.254Z,54.97
2022-11-03T21:48:15.036Z,54.93
2022-11-03T21:50:43.319Z,55.15
2022-11-03T21:53:11.516Z,55.08
2022-11-03T21:55:39.434Z,55.20
2022-11-03T21:58:07.075Z,55.07
2022-11-03T22:00:34.736Z,55.06
2022-11-03T22:03:02.045Z,54.93
2022-11-03T22:05:29.527Z,54.78
2022-11-03T22:07:56.826Z,54.82
2022-11-03T22:10:24.555Z,54.71
2022-11-03T22:12:51.650Z,54.77
2022-11-03T22:15:37.102Z,54.67
2022-11-03T22:18:06.305Z,54.78
2022-11-03T22:20:52.820Z,54.57
2022-11-03T22:23:38.570Z,54.72
2022-11-03T22:26:24.204Z,54.71
2022-11-03T22:29:11.196Z,54.71
2022-11-03T22:31:40.876Z,54.48
2022-11-03T22:34:26.867Z,54.30
2022-11-03T22:36:54.181Z,54.22
2022-11-03T22:39:41.501Z,54.31
2022-11-03T22:42:31.244Z,54.24
2022-11-03T22:45:16.650Z,54.16
2022-11-03T22:47:43.929Z,54.34
2022-11-03T22:50:11.143Z,54.40
2022-11-03T22:52:38.360Z,54.71
2022-11-03T22:55:05.858Z,54.73
2022-11-03T22:57:33.279Z,54.62
2022-11-03T23:00:00.602Z,54.84
2022-11-03T23:02:27.985Z,54.87
2022-11-03T23:04:55.105Z,54.68
2022-11-03T23:07:25.742Z,54.88
2022-11-03T23:09:55.651Z,54.67
2022-11-03T23:12:22.764Z,54.69
2022-11-03T23:15:08.320Z,54.61
2022-11-03T23:17:53.738Z,54.73
2022-11-03T23:20:39.306Z,54.77
2022-11-03T23:23:06.661Z,54.66
2022-11-03T23:25:34.029Z,54.82
2022-11-03T23:28:01.132Z,54.78
2022-11-03T23:30:28.235Z,54.73
2022-11-03T23:32:55.272Z,54.57
2022-11-03T23:35:22.407Z,54.73
2022-11-03T23:37:49.531Z,54.68
2022-11-03T23:40:20.354Z,54.62
2022-11-03T23:42:48.731Z,54.63
2022-11-03T23:45:34.366Z,54.93
2022-11-03T23:48:20.166Z,54.79
2022-11-03T23:50:47.311Z,54.85
2022-11-03T23:53:14.464Z,54.64
2022-11-03T23:56:01.527Z,54.84
2022-11-03T23:58:28.650Z,54.91
